sensor_id;sensor_type;location;lat;lon;timestamp;P1;durP1;ratioP1;P2;durP2;ratioP2
81901;SDS011;71369;50.796;3.290;2024-03-22T00:01:58;29.20;;;15.13;;
81901;SDS011;71369;50.796;3.290;2024-03-22T00:04:23;30.42;;;14.90;;
81901;SDS011;71369;50.796;3.290;2024-03-22T00:06:51;31.77;;;15.35;;
81901;SDS011;71369;50.796;3.290;2024-03-22T00:09:17;33.47;;;14.70;;
81901;SDS011;71369;50.796;3.290;2024-03-22T00:11:43;29.35;;;14.75;;
81901;SDS011;71369;50.796;3.290;2024-03-22T00:14:11;28.00;;;13.85;;
81901;SDS011;71369;50.796;3.290;2024-03-22T00:16:37;30.52;;;14.13;;
81901;SDS011;71369;50.796;3.290;2024-03-22T00:19:03;29.55;;;15.02;;
81901;SDS011;71369;50.796;3.290;2024-03-22T00:21:29;36.17;;;15.23;;
81901;SDS011;71369;50.796;3.290;2024-03-22T00:23:56;34.65;;;15.82;;
81901;SDS011;71369;50.796;3.290;2024-03-22T00:26:22;32.55;;;15.15;;
81901;SDS011;71369;50.796;3.290;2024-03-22T00:28:48;34.72;;;15.43;;
81901;SDS011;71369;50.796;3.290;2024-03-22T00:31:14;34.00;;;16.00;;
81901;SDS011;71369;50.796;3.290;2024-03-22T00:33:40;31.90;;;14.70;;
81901;SDS011;71369;50.796;3.290;2024-03-22T00:36:06;35.15;;;15.32;;
81901;SDS011;71369;50.796;3.290;2024-03-22T00:38:32;35.97;;;14.55;;
81901;SDS011;71369;50.796;3.290;2024-03-22T00:40:58;31.40;;;15.90;;
81901;SDS011;71369;50.796;3.290;2024-03-22T00:43:24;39.42;;;19.42;;
81901;SDS011;71369;50.796;3.290;2024-03-22T00:45:50;40.55;;;21.77;;
81901;SDS011;71369;50.796;3.290;2024-03-22T00:48:16;45.40;;;20.73;;
81901;SDS011;71369;50.796;3.290;2024-03-22T00:50:41;34.60;;;19.25;;
81901;SDS011;71369;50.796;3.290;2024-03-22T00:53:07;34.97;;;18.27;;
81901;SDS011;71369;50.796;3.290;2024-03-22T00:55:35;34.25;;;14.43;;
81901;SDS011;71369;50.796;3.290;2024-03-22T00:58:01;29.98;;;14.10;;
81901;SDS011;71369;50.796;3.290;2024-03-22T01:00:26;33.13;;;14.48;;
81901;SDS011;71369;50.796;3.290;2024-03-22T01:02:52;24.73;;;11.20;;
81901;SDS011;71369;50.796;3.290;2024-03-22T01:05:18;27.38;;;13.55;;
81901;SDS011;71369;50.796;3.290;2024-03-22T01:07:44;28.00;;;12.70;;
81901;SDS011;71369;50.796;3.290;2024-03-22T01:10:10;25.45;;;13.27;;
81901;SDS011;71369;50.796;3.290;2024-03-22T01:12:36;30.52;;;13.85;;
81901;SDS011;71369;50.796;3.290;2024-03-22T01:15:03;28.10;;;12.05;;
81901;SDS011;71369;50.796;3.290;2024-03-22T01:17:29;29.48;;;13.82;;
81901;SDS011;71369;50.796;3.290;2024-03-22T01:19:55;23.90;;;12.57;;
81901;SDS011;71369;50.796;3.290;2024-03-22T01:22:20;26.50;;;12.40;;
81901;SDS011;71369;50.796;3.290;2024-03-22T01:24:46;25.42;;;12.32;;
81901;SDS011;71369;50.796;3.290;2024-03-22T01:27:12;23.33;;;12.45;;
81901;SDS011;71369;50.796;3.290;2024-03-22T01:29:38;24.30;;;11.95;;
81901;SDS011;71369;50.796;3.290;2024-03-22T01:32:04;22.23;;;10.57;;
81901;SDS011;71369;50.796;3.290;2024-03-22T01:34:32;28.48;;;13.23;;
81901;SDS011;71369;50.796;3.290;2024-03-22T01:36:59;26.80;;;11.57;;
81901;SDS011;71369;50.796;3.290;2024-03-22T01:39:25;23.05;;;10.95;;
81901;SDS011;71369;50.796;3.290;2024-03-22T01:41:51;23.48;;;12.15;;
81901;SDS011;71369;50.796;3.290;2024-03-22T01:44:17;24.67;;;12.40;;
81901;SDS011;71369;50.796;3.290;2024-03-22T01:46:44;25.17;;;11.93;;
81901;SDS011;71369;50.796;3.290;2024-03-22T01:49:11;23.13;;;12.30;;
81901;SDS011;71369;50.796;3.290;2024-03-22T01:51:41;23.45;;;11.63;;
81901;SDS011;71369;50.796;3.290;2024-03-22T01:54:11;27.42;;;12.05;;
81901;SDS011;71369;50.796;3.290;2024-03-22T01:56:37;22.65;;;11.02;;
81901;SDS011;71369;50.796;3.290;2024-03-22T01:59:04;22.65;;;11.13;;
81901;SDS011;71369;50.796;3.290;2024-03-22T02:01:30;22.63;;;11.15;;
81901;SDS011;71369;50.796;3.290;2024-03-22T02:03:56;16.10;;;9.15;;
81901;SDS011;71369;50.796;3.290;2024-03-22T02:06:22;18.45;;;10.15;;
81901;SDS011;71369;50.796;3.290;2024-03-22T02:08:48;21.88;;;11.30;;
81901;SDS011;71369;50.796;3.290;2024-03-22T02:11:14;21.75;;;10.82;;
81901;SDS011;71369;50.796;3.290;2024-03-22T02:13:40;21.55;;;10.50;;
81901;SDS011;71369;50.796;3.290;2024-03-22T02:16:05;20.88;;;10.48;;
81901;SDS011;71369;50.796;3.290;2024-03-22T02:18:31;19.55;;;10.00;;
81901;SDS011;71369;50.796;3.290;2024-03-22T02:20:57;18.23;;;9.50;;
81901;SDS011;71369;50.796;3.290;2024-03-22T02:23:33;18.25;;;9.23;;
81901;SDS011;71369;50.796;3.290;2024-03-22T02:25:59;21.85;;;9.25;;
81901;SDS011;71369;50.796;3.290;2024-03-22T02:28:30;21.75;;;10.25;;
81901;SDS011;71369;50.796;3.290;2024-03-22T02:30:57;18.55;;;8.98;;
81901;SDS011;71369;50.796;3.290;2024-03-22T02:33:23;18.70;;;8.85;;
81901;SDS011;71369;50.796;3.290;2024-03-22T02:35:49;16.83;;;7.45;;
81901;SDS011;71369;50.796;3.290;2024-03-22T02:38:16;15.98;;;8.75;;
81901;SDS011;71369;50.796;3.290;2024-03-22T02:40:45;19.48;;;9.30;;
81901;SDS011;71369;50.796;3.290;2024-03-22T02:43:11;19.60;;;9.45;;
81901;SDS011;71369;50.796;3.290;2024-03-22T02:45:37;17.75;;;9.52;;
81901;SDS011;71369;50.796;3.290;2024-03-22T02:48:03;18.63;;;8.32;;
81901;SDS011;71369;50.796;3.290;2024-03-22T02:50:36;17.73;;;8.52;;
81901;SDS011;71369;50.796;3.290;2024-03-22T02:53:02;20.10;;;9.27;;
81901;SDS011;71369;50.796;3.290;2024-03-22T02:55:29;19.02;;;8.82;;
81901;SDS011;71369;50.796;3.290;2024-03-22T02:57:58;21.13;;;9.50;;
81901;SDS011;71369;50.796;3.290;2024-03-22T03:00:24;18.77;;;9.93;;
81901;SDS011;71369;50.796;3.290;2024-03-22T03:02:50;19.45;;;8.23;;
81901;SDS011;71369;50.796;3.290;2024-03-22T03:05:15;17.60;;;8.57;;
81901;SDS011;71369;50.796;3.290;2024-03-22T03:07:41;18.77;;;8.90;;
81901;SDS011;71369;50.796;3.290;2024-03-22T03:10:07;19.90;;;9.48;;
81901;SDS011;71369;50.796;3.290;2024-03-22T03:12:33;18.88;;;8.77;;
81901;SDS011;71369;50.796;3.290;2024-03-22T03:14:58;17.50;;;9.02;;
81901;SDS011;71369;50.796;3.290;2024-03-22T03:17:24;19.92;;;9.15;;
81901;SDS011;71369;50.796;3.290;2024-03-22T03:19:50;18.23;;;8.38;;
81901;SDS011;71369;50.796;3.290;2024-03-22T03:22:16;19.50;;;8.48;;
81901;SDS011;71369;50.796;3.290;2024-03-22T03:24:41;17.92;;;8.52;;
81901;SDS011;71369;50.796;3.290;2024-03-22T03:27:08;21.85;;;8.82;;
81901;SDS011;71369;50.796;3.290;2024-03-22T03:29:34;18.50;;;8.60;;
81901;SDS011;71369;50.796;3.290;2024-03-22T03:32:00;17.27;;;8.95;;
81901;SDS011;71369;50.796;3.290;2024-03-22T03:34:25;19.30;;;8.27;;
81901;SDS011;71369;50.796;3.290;2024-03-22T03:36:51;19.38;;;9.30;;
81901;SDS011;71369;50.796;3.290;2024-03-22T03:39:17;15.68;;;7.40;;
81901;SDS011;71369;50.796;3.290;2024-03-22T03:41:42;17.80;;;9.25;;
81901;SDS011;71369;50.796;3.290;2024-03-22T03:44:08;15.52;;;7.28;;
81901;SDS011;71369;50.796;3.290;2024-03-22T03:46:34;14.45;;;6.80;;
81901;SDS011;71369;50.796;3.290;2024-03-22T03:49:09;18.10;;;7.78;;
81901;SDS011;71369;50.796;3.290;2024-03-22T03:51:35;18.88;;;7.55;;
81901;SDS011;71369;50.796;3.290;2024-03-22T03:54:01;18.25;;;8.57;;
81901;SDS011;71369;50.796;3.290;2024-03-22T03:56:27;17.90;;;7.78;;
81901;SDS011;71369;50.796;3.290;2024-03-22T03:58:52;16.65;;;8.18;;
81901;SDS011;71369;50.796;3.290;2024-03-22T04:01:19;17.17;;;7.45;;
81901;SDS011;71369;50.796;3.290;2024-03-22T04:03:45;16.85;;;7.43;;
81901;SDS011;71369;50.796;3.290;2024-03-22T04:06:10;13.80;;;7.00;;
81901;SDS011;71369;50.796;3.290;2024-03-22T04:08:36;12.68;;;5.85;;
81901;SDS011;71369;50.796;3.290;2024-03-22T04:11:02;13.50;;;6.93;;
81901;SDS011;71369;50.796;3.290;2024-03-22T04:13:28;20.92;;;7.05;;
81901;SDS011;71369;50.796;3.290;2024-03-22T04:15:53;15.18;;;6.57;;
81901;SDS011;71369;50.796;3.290;2024-03-22T04:18:23;13.65;;;7.03;;
81901;SDS011;71369;50.796;3.290;2024-03-22T04:20:55;14.82;;;7.05;;
81901;SDS011;71369;50.796;3.290;2024-03-22T04:23:22;19.52;;;6.82;;
81901;SDS011;71369;50.796;3.290;2024-03-22T04:26:00;13.13;;;6.88;;
81901;SDS011;71369;50.796;3.290;2024-03-22T04:28:27;11.48;;;4.80;;
81901;SDS011;71369;50.796;3.290;2024-03-22T04:30:54;12.95;;;6.03;;
81901;SDS011;71369;50.796;3.290;2024-03-22T04:33:27;13.88;;;6.43;;
81901;SDS011;71369;50.796;3.290;2024-03-22T04:35:54;11.27;;;5.57;;
81901;SDS011;71369;50.796;3.290;2024-03-22T04:38:21;13.65;;;7.28;;
81901;SDS011;71369;50.796;3.290;2024-03-22T04:40:50;12.07;;;6.30;;
81901;SDS011;71369;50.796;3.290;2024-03-22T04:43:18;13.65;;;5.85;;
81901;SDS011;71369;50.796;3.290;2024-03-22T04:45:44;13.98;;;6.55;;
81901;SDS011;71369;50.796;3.290;2024-03-22T04:48:11;16.42;;;7.55;;
81901;SDS011;71369;50.796;3.290;2024-03-22T04:50:38;12.82;;;6.20;;
81901;SDS011;71369;50.796;3.290;2024-03-22T04:53:04;13.00;;;6.72;;
81901;SDS011;71369;50.796;3.290;2024-03-22T04:55:30;13.45;;;6.93;;
81901;SDS011;71369;50.796;3.290;2024-03-22T04:57:58;11.50;;;5.60;;
81901;SDS011;71369;50.796;3.290;2024-03-22T05:00:23;12.38;;;5.90;;
81901;SDS011;71369;50.796;3.290;2024-03-22T05:02:50;14.70;;;5.50;;
81901;SDS011;71369;50.796;3.290;2024-03-22T05:05:16;14.80;;;5.43;;
81901;SDS011;71369;50.796;3.290;2024-03-22T05:07:42;9.85;;;5.13;;
81901;SDS011;71369;50.796;3.290;2024-03-22T05:10:08;10.02;;;5.47;;
81901;SDS011;71369;50.796;3.290;2024-03-22T05:12:34;13.63;;;5.95;;
81901;SDS011;71369;50.796;3.290;2024-03-22T05:15:02;8.45;;;4.22;;
81901;SDS011;71369;50.796;3.290;2024-03-22T05:17:28;11.68;;;4.85;;
81901;SDS011;71369;50.796;3.290;2024-03-22T05:19:56;12.57;;;5.70;;
81901;SDS011;71369;50.796;3.290;2024-03-22T05:22:25;12.30;;;4.38;;
81901;SDS011;71369;50.796;3.290;2024-03-22T05:24:51;14.75;;;4.93;;
81901;SDS011;71369;50.796;3.290;2024-03-22T05:27:17;13.05;;;5.47;;
81901;SDS011;71369;50.796;3.290;2024-03-22T05:29:43;11.60;;;5.85;;
81901;SDS011;71369;50.796;3.290;2024-03-22T05:32:08;11.32;;;4.88;;
81901;SDS011;71369;50.796;3.290;2024-03-22T05:34:34;11.18;;;5.18;;
81901;SDS011;71369;50.796;3.290;2024-03-22T05:37:00;12.43;;;5.93;;
81901;SDS011;71369;50.796;3.290;2024-03-22T05:39:26;9.93;;;4.60;;
81901;SDS011;71369;50.796;3.290;2024-03-22T05:41:52;10.70;;;5.45;;
81901;SDS011;71369;50.796;3.290;2024-03-22T05:44:19;9.95;;;5.05;;
81901;SDS011;71369;50.796;3.290;2024-03-22T05:46:48;17.80;;;6.68;;
81901;SDS011;71369;50.796;3.290;2024-03-22T05:49:14;12.32;;;5.88;;
81901;SDS011;71369;50.796;3.290;2024-03-22T05:51:41;13.20;;;6.07;;
81901;SDS011;71369;50.796;3.290;2024-03-22T05:54:06;10.55;;;5.68;;
81901;SDS011;71369;50.796;3.290;2024-03-22T05:56:32;13.13;;;6.63;;
81901;SDS011;71369;50.796;3.290;2024-03-22T05:58:58;17.05;;;7.63;;
81901;SDS011;71369;50.796;3.290;2024-03-22T06:01:24;14.98;;;7.57;;
81901;SDS011;71369;50.796;3.290;2024-03-22T06:03:50;16.00;;;7.03;;
81901;SDS011;71369;50.796;3.290;2024-03-22T06:06:16;13.68;;;6.72;;
81901;SDS011;71369;50.796;3.290;2024-03-22T06:08:42;14.40;;;6.82;;
81901;SDS011;71369;50.796;3.290;2024-03-22T06:11:10;12.05;;;5.68;;
81901;SDS011;71369;50.796;3.290;2024-03-22T06:13:36;15.48;;;8.05;;
81901;SDS011;71369;50.796;3.290;2024-03-22T06:16:02;11.90;;;5.53;;
81901;SDS011;71369;50.796;3.290;2024-03-22T06:18:28;15.88;;;7.28;;
81901;SDS011;71369;50.796;3.290;2024-03-22T06:20:54;15.55;;;7.03;;
81901;SDS011;71369;50.796;3.290;2024-03-22T06:23:20;13.13;;;6.68;;
81901;SDS011;71369;50.796;3.290;2024-03-22T06:25:54;13.75;;;6.70;;
81901;SDS011;71369;50.796;3.290;2024-03-22T06:28:21;20.20;;;7.60;;
81901;SDS011;71369;50.796;3.290;2024-03-22T06:30:49;16.10;;;7.55;;
81901;SDS011;71369;50.796;3.290;2024-03-22T06:33:14;16.23;;;7.43;;
81901;SDS011;71369;50.796;3.290;2024-03-22T06:35:41;16.60;;;7.60;;
81901;SDS011;71369;50.796;3.290;2024-03-22T06:38:06;13.82;;;6.97;;
81901;SDS011;71369;50.796;3.290;2024-03-22T06:40:33;13.48;;;7.32;;
81901;SDS011;71369;50.796;3.290;2024-03-22T06:43:09;16.73;;;7.68;;
81901;SDS011;71369;50.796;3.290;2024-03-22T06:45:35;13.77;;;7.00;;
81901;SDS011;71369;50.796;3.290;2024-03-22T06:48:04;13.05;;;7.00;;
81901;SDS011;71369;50.796;3.290;2024-03-22T06:50:30;17.08;;;7.80;;
81901;SDS011;71369;50.796;3.290;2024-03-22T06:52:56;13.70;;;6.60;;
81901;SDS011;71369;50.796;3.290;2024-03-22T06:55:22;17.25;;;7.35;;
81901;SDS011;71369;50.796;3.290;2024-03-22T06:57:48;19.40;;;7.28;;
81901;SDS011;71369;50.796;3.290;2024-03-22T07:00:14;15.60;;;7.43;;
81901;SDS011;71369;50.796;3.290;2024-03-22T07:02:41;14.02;;;7.20;;
81901;SDS011;71369;50.796;3.290;2024-03-22T07:05:07;15.32;;;6.55;;
81901;SDS011;71369;50.796;3.290;2024-03-22T07:07:33;15.75;;;8.00;;
81901;SDS011;71369;50.796;3.290;2024-03-22T07:10:00;14.75;;;7.43;;
81901;SDS011;71369;50.796;3.290;2024-03-22T07:12:26;14.40;;;7.25;;
81901;SDS011;71369;50.796;3.290;2024-03-22T07:14:52;14.73;;;7.82;;
81901;SDS011;71369;50.796;3.290;2024-03-22T07:17:17;13.38;;;7.60;;
81901;SDS011;71369;50.796;3.290;2024-03-22T07:19:48;17.85;;;6.30;;
81901;SDS011;71369;50.796;3.290;2024-03-22T07:22:16;20.92;;;7.88;;
81901;SDS011;71369;50.796;3.290;2024-03-22T07:24:42;13.90;;;7.20;;
81901;SDS011;71369;50.796;3.290;2024-03-22T07:27:08;15.95;;;7.20;;
81901;SDS011;71369;50.796;3.290;2024-03-22T07:29:34;16.25;;;7.70;;
81901;SDS011;71369;50.796;3.290;2024-03-22T07:31:59;15.50;;;6.75;;
81901;SDS011;71369;50.796;3.290;2024-03-22T07:34:25;13.45;;;6.55;;
81901;SDS011;71369;50.796;3.290;2024-03-22T07:36:51;16.67;;;7.70;;
81901;SDS011;71369;50.796;3.290;2024-03-22T07:39:16;15.75;;;7.22;;
81901;SDS011;71369;50.796;3.290;2024-03-22T07:41:42;14.63;;;6.68;;
81901;SDS011;71369;50.796;3.290;2024-03-22T07:44:08;15.40;;;6.45;;
81901;SDS011;71369;50.796;3.290;2024-03-22T07:46:33;13.48;;;6.70;;
81901;SDS011;71369;50.796;3.290;2024-03-22T07:48:59;12.85;;;6.32;;
81901;SDS011;71369;50.796;3.290;2024-03-22T07:51:25;21.98;;;7.53;;
81901;SDS011;71369;50.796;3.290;2024-03-22T07:53:51;16.95;;;7.00;;
81901;SDS011;71369;50.796;3.290;2024-03-22T07:56:17;17.30;;;6.25;;
81901;SDS011;71369;50.796;3.290;2024-03-22T07:58:44;15.52;;;6.35;;
81901;SDS011;71369;50.796;3.290;2024-03-22T08:01:09;15.55;;;6.88;;
81901;SDS011;71369;50.796;3.290;2024-03-22T08:03:35;13.65;;;6.28;;
81901;SDS011;71369;50.796;3.290;2024-03-22T08:06:01;12.10;;;6.30;;
81901;SDS011;71369;50.796;3.290;2024-03-22T08:08:27;12.07;;;6.38;;
81901;SDS011;71369;50.796;3.290;2024-03-22T08:10:52;15.20;;;6.80;;
81901;SDS011;71369;50.796;3.290;2024-03-22T08:13:18;13.90;;;6.63;;
81901;SDS011;71369;50.796;3.290;2024-03-22T08:15:44;23.70;;;7.40;;
81901;SDS011;71369;50.796;3.290;2024-03-22T08:18:11;15.27;;;5.97;;
81901;SDS011;71369;50.796;3.290;2024-03-22T08:20:38;15.50;;;6.82;;
81901;SDS011;71369;50.796;3.290;2024-03-22T08:23:04;14.25;;;6.68;;
81901;SDS011;71369;50.796;3.290;2024-03-22T08:25:30;16.88;;;6.18;;
81901;SDS011;71369;50.796;3.290;2024-03-22T08:27:56;14.57;;;7.22;;
81901;SDS011;71369;50.796;3.290;2024-03-22T08:30:23;13.57;;;6.30;;
81901;SDS011;71369;50.796;3.290;2024-03-22T08:32:50;15.10;;;6.22;;
81901;SDS011;71369;50.796;3.290;2024-03-22T08:35:16;13.18;;;6.15;;
81901;SDS011;71369;50.796;3.290;2024-03-22T08:37:41;13.35;;;6.20;;
81901;SDS011;71369;50.796;3.290;2024-03-22T08:40:07;12.18;;;6.18;;
81901;SDS011;71369;50.796;3.290;2024-03-22T08:42:33;14.10;;;6.18;;
81901;SDS011;71369;50.796;3.290;2024-03-22T08:44:59;18.98;;;6.65;;
81901;SDS011;71369;50.796;3.290;2024-03-22T08:47:25;12.40;;;6.07;;
81901;SDS011;71369;50.796;3.290;2024-03-22T08:49:51;17.67;;;5.93;;
81901;SDS011;71369;50.796;3.290;2024-03-22T08:52:16;18.35;;;5.78;;
81901;SDS011;71369;50.796;3.290;2024-03-22T08:54:42;10.48;;;5.30;;
81901;SDS011;71369;50.796;3.290;2024-03-22T08:57:08;13.65;;;6.18;;
81901;SDS011;71369;50.796;3.290;2024-03-22T08:59:34;18.02;;;6.88;;
81901;SDS011;71369;50.796;3.290;2024-03-22T09:02:00;10.35;;;6.28;;
81901;SDS011;71369;50.796;3.290;2024-03-22T09:04:26;10.73;;;5.72;;
81901;SDS011;71369;50.796;3.290;2024-03-22T09:06:52;13.25;;;5.55;;
81901;SDS011;71369;50.796;3.290;2024-03-22T09:09:19;12.77;;;5.70;;
81901;SDS011;71369;50.796;3.290;2024-03-22T09:11:45;10.23;;;6.57;;
81901;SDS011;71369;50.796;3.290;2024-03-22T09:14:11;12.70;;;5.13;;
81901;SDS011;71369;50.796;3.290;2024-03-22T09:16:37;13.02;;;5.22;;
81901;SDS011;71369;50.796;3.290;2024-03-22T09:19:06;14.10;;;5.82;;
81901;SDS011;71369;50.796;3.290;2024-03-22T09:21:32;16.33;;;5.55;;
81901;SDS011;71369;50.796;3.290;2024-03-22T09:23:58;11.57;;;5.13;;
81901;SDS011;71369;50.796;3.290;2024-03-22T09:26:23;12.57;;;4.75;;
81901;SDS011;71369;50.796;3.290;2024-03-22T09:28:49;10.98;;;4.65;;
81901;SDS011;71369;50.796;3.290;2024-03-22T09:31:15;12.90;;;4.70;;
81901;SDS011;71369;50.796;3.290;2024-03-22T09:33:42;10.07;;;4.95;;
81901;SDS011;71369;50.796;3.290;2024-03-22T09:36:08;10.88;;;4.20;;
81901;SDS011;71369;50.796;3.290;2024-03-22T09:38:34;13.15;;;5.03;;
81901;SDS011;71369;50.796;3.290;2024-03-22T09:40:59;9.43;;;4.32;;
81901;SDS011;71369;50.796;3.290;2024-03-22T09:43:26;10.43;;;5.18;;
81901;SDS011;71369;50.796;3.290;2024-03-22T09:45:54;11.43;;;5.13;;
81901;SDS011;71369;50.796;3.290;2024-03-22T09:48:20;16.70;;;4.57;;
81901;SDS011;71369;50.796;3.290;2024-03-22T09:50:47;10.60;;;4.60;;
81901;SDS011;71369;50.796;3.290;2024-03-22T09:53:17;7.78;;;3.80;;
81901;SDS011;71369;50.796;3.290;2024-03-22T09:55:46;12.85;;;4.15;;
81901;SDS011;71369;50.796;3.290;2024-03-22T09:58:12;22.00;;;5.82;;
81901;SDS011;71369;50.796;3.290;2024-03-22T10:00:38;13.38;;;4.35;;
81901;SDS011;71369;50.796;3.290;2024-03-22T10:03:04;10.65;;;4.22;;
81901;SDS011;71369;50.796;3.290;2024-03-22T10:05:31;10.63;;;4.03;;
81901;SDS011;71369;50.796;3.290;2024-03-22T10:07:57;10.25;;;3.80;;
81901;SDS011;71369;50.796;3.290;2024-03-22T10:10:23;11.35;;;4.03;;
81901;SDS011;71369;50.796;3.290;2024-03-22T10:12:49;11.05;;;4.25;;
81901;SDS011;71369;50.796;3.290;2024-03-22T10:15:14;11.93;;;3.97;;
81901;SDS011;71369;50.796;3.290;2024-03-22T10:17:42;11.00;;;4.55;;
81901;SDS011;71369;50.796;3.290;2024-03-22T10:20:07;8.98;;;4.05;;
81901;SDS011;71369;50.796;3.290;2024-03-22T10:22:55;14.35;;;4.70;;
81901;SDS011;71369;50.796;3.290;2024-03-22T10:25:25;8.82;;;4.13;;
81901;SDS011;71369;50.796;3.290;2024-03-22T10:27:55;12.88;;;4.45;;
81901;SDS011;71369;50.796;3.290;2024-03-22T10:30:22;8.68;;;3.88;;
81901;SDS011;71369;50.796;3.290;2024-03-22T10:32:50;14.75;;;4.85;;
81901;SDS011;71369;50.796;3.290;2024-03-22T10:35:19;30.67;;;4.82;;
81901;SDS011;71369;50.796;3.290;2024-03-22T10:37:44;9.85;;;4.30;;
81901;SDS011;71369;50.796;3.290;2024-03-22T10:40:10;8.52;;;3.80;;
81901;SDS011;71369;50.796;3.290;2024-03-22T10:42:37;11.57;;;5.72;;
81901;SDS011;71369;50.796;3.290;2024-03-22T10:45:05;8.32;;;4.25;;
81901;SDS011;71369;50.796;3.290;2024-03-22T10:47:32;12.35;;;4.43;;
81901;SDS011;71369;50.796;3.290;2024-03-22T10:52:34;13.75;;;5.13;;
81901;SDS011;71369;50.796;3.290;2024-03-22T10:55:12;12.80;;;4.97;;
81901;SDS011;71369;50.796;3.290;2024-03-22T10:57:45;19.73;;;5.65;;
81901;SDS011;71369;50.796;3.290;2024-03-22T11:00:12;11.73;;;4.50;;
81901;SDS011;71369;50.796;3.290;2024-03-22T11:02:38;10.65;;;4.60;;
81901;SDS011;71369;50.796;3.290;2024-03-22T11:05:15;10.27;;;4.70;;
81901;SDS011;71369;50.796;3.290;2024-03-22T11:07:43;15.30;;;5.57;;
81901;SDS011;71369;50.796;3.290;2024-03-22T11:10:11;12.02;;;4.88;;
81901;SDS011;71369;50.796;3.290;2024-03-22T11:12:37;12.60;;;4.97;;
81901;SDS011;71369;50.796;3.290;2024-03-22T11:15:04;9.80;;;4.60;;
81901;SDS011;71369;50.796;3.290;2024-03-22T11:17:30;10.95;;;4.95;;
81901;SDS011;71369;50.796;3.290;2024-03-22T11:19:56;11.32;;;4.90;;
81901;SDS011;71369;50.796;3.290;2024-03-22T11:22:22;15.75;;;5.63;;
81901;SDS011;71369;50.796;3.290;2024-03-22T11:24:50;16.33;;;5.70;;
81901;SDS011;71369;50.796;3.290;2024-03-22T11:27:15;12.45;;;5.80;;
81901;SDS011;71369;50.796;3.290;2024-03-22T11:29:41;21.00;;;7.63;;
81901;SDS011;71369;50.796;3.290;2024-03-22T11:32:09;14.38;;;6.20;;
81901;SDS011;71369;50.796;3.290;2024-03-22T11:34:38;11.40;;;6.05;;
81901;SDS011;71369;50.796;3.290;2024-03-22T11:37:06;11.27;;;6.32;;
81901;SDS011;71369;50.796;3.290;2024-03-22T11:39:35;11.88;;;6.90;;
81901;SDS011;71369;50.796;3.290;2024-03-22T11:42:05;12.95;;;6.32;;
81901;SDS011;71369;50.796;3.290;2024-03-22T11:44:34;14.35;;;6.70;;
81901;SDS011;71369;50.796;3.290;2024-03-22T11:47:03;11.07;;;6.05;;
81901;SDS011;71369;50.796;3.290;2024-03-22T11:49:29;12.40;;;6.70;;
81901;SDS011;71369;50.796;3.290;2024-03-22T11:51:58;13.70;;;6.28;;
81901;SDS011;71369;50.796;3.290;2024-03-22T11:54:24;20.13;;;7.22;;
81901;SDS011;71369;50.796;3.290;2024-03-22T11:56:49;16.33;;;6.40;;
81901;SDS011;71369;50.796;3.290;2024-03-22T11:59:19;18.50;;;7.72;;
81901;SDS011;71369;50.796;3.290;2024-03-22T12:01:45;13.50;;;6.15;;
81901;SDS011;71369;50.796;3.290;2024-03-22T12:04:12;36.13;;;8.63;;
81901;SDS011;71369;50.796;3.290;2024-03-22T12:06:46;11.30;;;6.63;;
81901;SDS011;71369;50.796;3.290;2024-03-22T12:09:12;15.45;;;6.63;;
81901;SDS011;71369;50.796;3.290;2024-03-22T12:11:39;17.70;;;6.43;;
81901;SDS011;71369;50.796;3.290;2024-03-22T12:14:05;18.63;;;7.03;;
81901;SDS011;71369;50.796;3.290;2024-03-22T12:16:31;17.92;;;7.05;;
81901;SDS011;71369;50.796;3.290;2024-03-22T12:18:57;18.25;;;7.43;;
81901;SDS011;71369;50.796;3.290;2024-03-22T12:21:23;19.77;;;7.95;;
81901;SDS011;71369;50.796;3.290;2024-03-22T12:23:49;16.30;;;6.65;;
81901;SDS011;71369;50.796;3.290;2024-03-22T12:26:15;16.20;;;6.70;;
81901;SDS011;71369;50.796;3.290;2024-03-22T12:28:41;13.05;;;7.13;;
81901;SDS011;71369;50.796;3.290;2024-03-22T12:31:08;16.40;;;7.53;;
81901;SDS011;71369;50.796;3.290;2024-03-22T12:33:38;21.50;;;6.80;;
81901;SDS011;71369;50.796;3.290;2024-03-22T12:36:03;20.38;;;8.57;;
81901;SDS011;71369;50.796;3.290;2024-03-22T12:38:29;12.20;;;7.32;;
81901;SDS011;71369;50.796;3.290;2024-03-22T12:40:55;13.35;;;7.80;;
81901;SDS011;71369;50.796;3.290;2024-03-22T12:43:21;15.77;;;8.35;;
81901;SDS011;71369;50.796;3.290;2024-03-22T12:45:47;18.58;;;8.05;;
81901;SDS011;71369;50.796;3.290;2024-03-22T12:48:13;15.88;;;6.97;;
81901;SDS011;71369;50.796;3.290;2024-03-22T12:50:38;20.90;;;6.80;;
81901;SDS011;71369;50.796;3.290;2024-03-22T12:53:04;21.40;;;8.10;;
81901;SDS011;71369;50.796;3.290;2024-03-22T12:55:30;14.27;;;7.50;;
81901;SDS011;71369;50.796;3.290;2024-03-22T12:57:57;17.48;;;7.65;;
81901;SDS011;71369;50.796;3.290;2024-03-22T13:00:23;12.25;;;7.53;;
81901;SDS011;71369;50.796;3.290;2024-03-22T13:02:49;25.02;;;7.35;;
81901;SDS011;71369;50.796;3.290;2024-03-22T13:05:17;21.98;;;9.30;;
81901;SDS011;71369;50.796;3.290;2024-03-22T13:07:43;14.90;;;7.43;;
81901;SDS011;71369;50.796;3.290;2024-03-22T13:10:09;16.52;;;7.88;;
81901;SDS011;71369;50.796;3.290;2024-03-22T13:12:35;16.05;;;7.68;;
81901;SDS011;71369;50.796;3.290;2024-03-22T13:15:01;16.83;;;8.65;;
81901;SDS011;71369;50.796;3.290;2024-03-22T13:17:27;16.13;;;8.68;;
81901;SDS011;71369;50.796;3.290;2024-03-22T13:19:53;16.25;;;8.95;;
81901;SDS011;71369;50.796;3.290;2024-03-22T13:22:19;17.13;;;8.55;;
81901;SDS011;71369;50.796;3.290;2024-03-22T13:24:45;15.73;;;8.10;;
81901;SDS011;71369;50.796;3.290;2024-03-22T13:27:11;14.45;;;8.38;;
81901;SDS011;71369;50.796;3.290;2024-03-22T13:29:38;20.92;;;9.95;;
81901;SDS011;71369;50.796;3.290;2024-03-22T13:32:04;16.73;;;8.38;;
81901;SDS011;71369;50.796;3.290;2024-03-22T13:34:34;13.43;;;7.88;;
81901;SDS011;71369;50.796;3.290;2024-03-22T13:37:00;15.32;;;8.45;;
81901;SDS011;71369;50.796;3.290;2024-03-22T13:39:26;15.85;;;7.82;;
81901;SDS011;71369;50.796;3.290;2024-03-22T13:41:54;16.23;;;7.65;;
81901;SDS011;71369;50.796;3.290;2024-03-22T13:44:21;17.63;;;8.30;;
81901;SDS011;71369;50.796;3.290;2024-03-22T13:46:48;16.17;;;8.95;;
81901;SDS011;71369;50.796;3.290;2024-03-22T13:49:16;17.00;;;7.80;;
81901;SDS011;71369;50.796;3.290;2024-03-22T13:54:46;12.50;;;8.20;;
81901;SDS011;71369;50.796;3.290;2024-03-22T13:57:12;17.73;;;8.38;;
81901;SDS011;71369;50.796;3.290;2024-03-22T13:59:38;16.65;;;8.82;;
81901;SDS011;71369;50.796;3.290;2024-03-22T14:02:05;21.60;;;9.07;;
81901;SDS011;71369;50.796;3.290;2024-03-22T14:04:32;16.50;;;8.90;;
81901;SDS011;71369;50.796;3.290;2024-03-22T14:06:58;16.52;;;9.82;;
81901;SDS011;71369;50.796;3.290;2024-03-22T14:09:24;14.15;;;8.70;;
81901;SDS011;71369;50.796;3.290;2024-03-22T14:11:59;17.85;;;8.70;;
81901;SDS011;71369;50.796;3.290;2024-03-22T14:14:25;14.40;;;8.80;;
81901;SDS011;71369;50.796;3.290;2024-03-22T14:16:51;15.52;;;8.55;;
81901;SDS011;71369;50.796;3.290;2024-03-22T14:19:20;16.70;;;8.30;;
81901;SDS011;71369;50.796;3.290;2024-03-22T14:21:47;13.95;;;7.80;;
81901;SDS011;71369;50.796;3.290;2024-03-22T14:24:14;16.13;;;9.25;;
81901;SDS011;71369;50.796;3.290;2024-03-22T14:26:41;14.80;;;8.75;;
81901;SDS011;71369;50.796;3.290;2024-03-22T14:29:09;17.42;;;9.38;;
81901;SDS011;71369;50.796;3.290;2024-03-22T14:31:36;20.10;;;8.50;;
81901;SDS011;71369;50.796;3.290;2024-03-22T14:34:02;16.15;;;7.57;;
81901;SDS011;71369;50.796;3.290;2024-03-22T14:36:28;12.65;;;7.03;;